Terminal Aerodrome Forecast
Issued by NWS Upton, NY

Home | Current Version | Previous Version | Text Only | Print | Product List | Glossary On
Versions: 1 2 3 4 5 6 7 8 9 10 11 12 13 14 15 16 17 18 19 20 21 22 23 24 25 26 27 28 29 30 31 32 33 34 35
015
FTUS41 KOKX 271414 AAC
TAFBDR
TAF AMD
KBDR 271414Z 2714/2812 20004KT 2SM BR OVC003
      TEMPO 2715/2717 3SM BR SCT005 OVC015
     FM271700 16006KT P6SM SCT008 BKN025
     FM272100 14008KT P6SM SCT015 BKN025
     FM272300 13007KT 6SM BR BKN007 OVC015
     FM280100 14006KT 4SM BR OVC008
     FM280300 VRB05KT 1 1/2SM -DZ BR OVC004
     FM280600 VRB04KT 1/2SM -DZ FG OVC008=

USA.gov is the U.S. government's official web portal to all federal, state and local government web resources and services.